createdAt,value
2019-02-24T00:01:45.421Z,13.40
2019-02-24T00:04:16.430Z,12.30
2019-02-24T00:06:47.410Z,16.07
2019-02-24T00:09:18.314Z,10.87
2019-02-24T00:11:49.254Z,13.47
2019-02-24T00:14:20.256Z,11.93
2019-02-24T00:16:51.351Z,12.90
2019-02-24T00:19:22.435Z,9.03
2019-02-24T00:21:53.654Z,10.47
2019-02-24T00:24:24.534Z,10.53
2019-02-24T00:26:55.559Z,10.17
2019-02-24T00:29:26.529Z,12.43
2019-02-24T00:31:57.501Z,9.37
2019-02-24T00:34:28.513Z,12.50
2019-02-24T00:36:59.408Z,9.67
2019-02-24T00:39:30.413Z,10.03
2019-02-24T00:42:01.413Z,15.60
2019-02-24T00:44:32.438Z,10.33
2019-02-24T00:47:03.440Z,10.73
2019-02-24T00:49:34.346Z,9.63
2019-02-24T00:52:05.300Z,10.27
2019-02-24T00:54:36.356Z,10.13
2019-02-24T00:57:07.283Z,8.90
2019-02-24T00:59:38.650Z,11.47
2019-02-24T01:02:11.182Z,12.10
2019-02-24T01:04:42.332Z,17.90
2019-02-24T01:07:13.315Z,15.87
2019-02-24T01:09:44.313Z,13.67
2019-02-24T01:12:15.275Z,12.67
2019-02-24T01:14:46.264Z,13.60
2019-02-24T01:17:17.308Z,12.33
2019-02-24T01:19:48.342Z,12.53
2019-02-24T01:22:19.312Z,13.27
2019-02-24T01:24:50.301Z,10.80
2019-02-24T01:27:21.327Z,14.63
2019-02-24T01:29:52.378Z,13.27
2019-02-24T01:32:23.326Z,11.57
2019-02-24T01:34:54.275Z,12.67
2019-02-24T01:37:25.252Z,11.37
2019-02-24T01:39:56.217Z,15.07
2019-02-24T01:42:27.195Z,16.83
2019-02-24T01:44:58.164Z,12.67
2019-02-24T01:47:29.156Z,14.70
2019-02-24T01:50:00.284Z,12.47
2019-02-24T01:52:31.200Z,12.03
2019-02-24T01:55:02.094Z,9.40
2019-02-24T01:57:32.966Z,13.70
2019-02-24T02:00:04.998Z,10.53
2019-02-24T02:02:35.918Z,10.07
2019-02-24T02:05:07.832Z,9.40
2019-02-24T02:07:38.730Z,11.30
2019-02-24T02:10:09.774Z,12.07
2019-02-24T02:12:40.664Z,12.90
2019-02-24T02:15:13.115Z,12.17
2019-02-24T02:17:44.155Z,11.87
2019-02-24T02:20:15.111Z,11.30
2019-02-24T02:22:46.121Z,16.33
2019-02-24T02:25:17.017Z,10.87
2019-02-24T02:27:47.985Z,8.63
2019-02-24T02:30:18.996Z,11.00
2019-02-24T02:32:50.037Z,9.90
2019-02-24T02:35:21.047Z,10.23
2019-02-24T02:37:52.070Z,9.77
2019-02-24T02:40:22.969Z,10.30
2019-02-24T02:42:53.874Z,11.83
2019-02-24T02:45:24.836Z,12.33
2019-02-24T02:47:55.749Z,12.30
2019-02-24T02:50:26.660Z,10.43
2019-02-24T02:52:57.709Z,9.70
2019-02-24T02:55:28.676Z,12.73
2019-02-24T02:57:59.574Z,11.53
2019-02-24T03:00:35.275Z,15.37
2019-02-24T03:03:06.277Z,9.77
2019-02-24T03:05:37.316Z,11.33
2019-02-24T03:08:09.927Z,10.83
2019-02-24T03:10:40.909Z,12.77
2019-02-24T03:13:11.859Z,12.70
2019-02-24T03:15:42.813Z,11.60
2019-02-24T03:18:13.695Z,12.73
2019-02-24T03:20:44.612Z,11.43
2019-02-24T03:23:15.573Z,11.50
2019-02-24T03:25:46.463Z,14.63
2019-02-24T03:28:17.383Z,18.17
2019-02-24T03:30:48.241Z,14.73
2019-02-24T03:33:19.139Z,11.97
2019-02-24T03:35:50.223Z,12.50
2019-02-24T03:38:21.068Z,10.73
2019-02-24T03:40:52.049Z,13.17
2019-02-24T03:43:23.080Z,14.17
2019-02-24T03:45:53.984Z,10.57
2019-02-24T03:48:24.947Z,11.07
2019-02-24T03:50:55.944Z,13.53
2019-02-24T03:53:26.949Z,11.83
2019-02-24T03:55:57.959Z,12.10
2019-02-24T03:58:28.973Z,16.33
2019-02-24T04:00:59.963Z,11.07
2019-02-24T04:03:30.987Z,10.70
2019-02-24T04:06:01.899Z,15.77
2019-02-24T04:08:32.758Z,10.13
2019-02-24T04:11:03.768Z,9.80
2019-02-24T04:13:34.753Z,9.13
2019-02-24T04:16:05.682Z,10.53
2019-02-24T04:18:36.729Z,11.23
2019-02-24T04:21:07.687Z,12.00
2019-02-24T04:23:38.566Z,8.77
2019-02-24T04:26:09.457Z,9.90
2019-02-24T04:28:40.488Z,9.20
2019-02-24T04:31:11.425Z,8.60
2019-02-24T04:33:42.502Z,9.77
2019-02-24T04:36:13.450Z,9.60
2019-02-24T04:38:44.430Z,6.37
2019-02-24T04:41:15.319Z,10.07
2019-02-24T04:43:46.216Z,9.77
2019-02-24T04:46:17.210Z,8.73
2019-02-24T04:48:48.121Z,9.47
2019-02-24T04:51:19.018Z,9.30
2019-02-24T04:53:50.066Z,9.67
2019-02-24T04:56:20.966Z,8.60
2019-02-24T04:58:51.852Z,10.33
2019-02-24T05:01:22.850Z,10.20
2019-02-24T05:03:53.773Z,9.67
2019-02-24T05:06:24.660Z,11.00
2019-02-24T05:08:55.714Z,10.27
2019-02-24T05:11:26.666Z,9.40
2019-02-24T05:14:09.596Z,10.30
2019-02-24T05:16:42.700Z,8.77
2019-02-24T05:19:13.699Z,9.80
2019-02-24T05:21:44.640Z,8.50
2019-02-24T05:24:15.615Z,10.30
2019-02-24T05:26:46.528Z,10.40
2019-02-24T05:29:17.495Z,9.43
2019-02-24T05:31:48.461Z,10.23
2019-02-24T05:34:19.421Z,9.07
2019-02-24T05:36:50.426Z,10.70
2019-02-24T05:39:21.349Z,9.27
2019-02-24T05:41:52.259Z,9.10
2019-02-24T05:44:23.353Z,11.33
2019-02-24T05:46:54.174Z,10.60
2019-02-24T05:49:25.074Z,10.87
2019-02-24T05:51:56.103Z,11.40
2019-02-24T05:54:27.072Z,8.17
2019-02-24T05:56:58.028Z,10.27
2019-02-24T05:59:28.970Z,10.37
2019-02-24T06:01:59.977Z,9.80
2019-02-24T06:04:30.932Z,9.93
2019-02-24T06:07:01.894Z,9.17
2019-02-24T06:09:32.860Z,9.77
2019-02-24T06:12:03.763Z,12.63
2019-02-24T06:14:34.666Z,9.27
2019-02-24T06:17:05.726Z,9.50
2019-02-24T06:19:36.660Z,9.97
2019-02-24T06:22:07.550Z,9.50
2019-02-24T06:24:38.424Z,11.00
2019-02-24T06:27:09.346Z,9.83
2019-02-24T06:29:40.220Z,7.53
2019-02-24T06:32:11.237Z,12.63
2019-02-24T06:34:42.315Z,11.37
2019-02-24T06:37:13.253Z,9.83
2019-02-24T06:39:44.140Z,12.60
2019-02-24T06:42:15.133Z,8.73
2019-02-24T06:44:46.097Z,8.80
2019-02-24T06:47:17.070Z,9.73
2019-02-24T06:49:47.944Z,9.10
2019-02-24T06:52:20.582Z,7.13
2019-02-24T06:54:51.529Z,10.83
2019-02-24T06:57:22.580Z,8.97
2019-02-24T06:59:53.447Z,8.03
2019-02-24T07:02:24.413Z,9.57
2019-02-24T07:04:55.283Z,8.27
2019-02-24T07:07:26.291Z,8.33
2019-02-24T07:09:57.297Z,9.40
2019-02-24T07:12:28.207Z,8.07
2019-02-24T07:14:59.123Z,11.87
2019-02-24T07:17:30.013Z,8.40
2019-02-24T07:20:00.915Z,9.70
2019-02-24T07:22:31.789Z,10.60
2019-02-24T07:25:02.829Z,11.43
2019-02-24T07:27:33.697Z,8.53
2019-02-24T07:30:06.639Z,7.57
2019-02-24T07:32:37.597Z,7.97
2019-02-24T07:35:08.457Z,9.90
2019-02-24T07:37:39.344Z,8.97
2019-02-24T07:40:10.383Z,9.27
2019-02-24T07:42:41.424Z,8.13
2019-02-24T07:45:12.241Z,10.47
2019-02-24T07:47:43.193Z,8.53
2019-02-24T07:50:14.181Z,9.77
2019-02-24T07:52:45.103Z,6.03
2019-02-24T07:55:16.018Z,10.50
2019-02-24T07:57:46.947Z,8.87
2019-02-24T08:00:18.017Z,11.17
2019-02-24T08:02:48.904Z,8.53
2019-02-24T08:05:19.887Z,7.53
2019-02-24T08:07:50.875Z,8.57
2019-02-24T08:10:21.781Z,8.87
2019-02-24T08:12:52.745Z,6.53
2019-02-24T08:15:23.947Z,6.10
2019-02-24T08:17:54.967Z,6.07
2019-02-24T08:20:25.928Z,6.87
2019-02-24T08:22:56.805Z,7.30
2019-02-24T08:25:27.718Z,9.33
2019-02-24T08:27:58.700Z,7.07
2019-02-24T08:30:29.617Z,6.07
2019-02-24T08:33:00.637Z,6.27
2019-02-24T08:35:31.620Z,6.73
2019-02-24T08:38:02.580Z,4.93
2019-02-24T08:40:33.459Z,5.30
2019-02-24T08:43:04.418Z,4.43
2019-02-24T08:45:35.353Z,7.40
2019-02-24T08:48:06.314Z,8.97
2019-02-24T08:50:37.265Z,6.80
2019-02-24T08:53:08.291Z,5.47
2019-02-24T08:55:39.208Z,7.17
2019-02-24T08:58:10.213Z,6.97
2019-02-24T09:00:50.485Z,6.37
2019-02-24T09:03:13.909Z,6.17
2019-02-24T09:05:44.844Z,5.67
2019-02-24T09:08:15.828Z,4.90
2019-02-24T09:10:46.742Z,6.17
2019-02-24T09:13:17.624Z,4.20
2019-02-24T09:15:48.574Z,5.30
2019-02-24T09:18:19.531Z,4.43
2019-02-24T09:20:50.631Z,5.13
2019-02-24T09:23:21.517Z,5.47
2019-02-24T09:25:52.498Z,5.77
2019-02-24T09:28:23.395Z,6.17
2019-02-24T09:31:00.917Z,6.20
2019-02-24T09:33:27.111Z,4.87
2019-02-24T09:35:58.065Z,6.57
2019-02-24T09:38:28.982Z,6.53
2019-02-24T09:41:01.305Z,5.87
2019-02-24T09:43:32.346Z,5.23
2019-02-24T09:46:03.312Z,5.37
2019-02-24T09:48:34.147Z,5.73
2019-02-24T09:51:05.233Z,5.73
2019-02-24T09:53:36.168Z,7.13
2019-02-24T09:56:07.154Z,7.10
2019-02-24T09:58:38.022Z,4.67
2019-02-24T10:01:10.903Z,5.67
2019-02-24T10:03:41.625Z,7.50
2019-02-24T10:06:12.538Z,9.90
2019-02-24T10:08:43.530Z,6.83
2019-02-24T10:11:14.442Z,5.30
2019-02-24T10:13:45.456Z,5.93
2019-02-24T10:16:16.555Z,4.47
2019-02-24T10:18:47.586Z,5.87
2019-02-24T10:21:18.582Z,5.27
2019-02-24T10:23:49.471Z,5.13
2019-02-24T10:26:20.402Z,5.97
2019-02-24T10:28:51.442Z,6.13
2019-02-24T10:31:22.368Z,9.70
2019-02-24T10:33:53.331Z,6.30
2019-02-24T10:36:24.368Z,6.03
2019-02-24T10:38:55.508Z,6.93
2019-02-24T10:41:26.492Z,4.80
2019-02-24T10:43:57.450Z,4.00
2019-02-24T10:46:28.511Z,5.13
2019-02-24T10:49:03.308Z,7.07
2019-02-24T10:51:32.085Z,5.87
2019-02-24T10:54:02.999Z,5.70
2019-02-24T10:56:33.985Z,5.43
2019-02-24T10:59:05.081Z,6.60
2019-02-24T11:01:36.068Z,5.23
2019-02-24T11:04:07.122Z,6.80
2019-02-24T11:06:38.098Z,5.03
2019-02-24T11:09:09.553Z,8.90
2019-02-24T11:11:40.578Z,5.27
2019-02-24T11:14:13.004Z,5.27
2019-02-24T11:16:43.979Z,6.60
2019-02-24T11:19:15.170Z,5.90
2019-02-24T11:21:46.261Z,5.50
2019-02-24T11:24:17.162Z,5.23
2019-02-24T11:26:48.082Z,4.80
2019-02-24T11:29:19.108Z,6.00
2019-02-24T11:31:50.173Z,5.87
2019-02-24T11:34:21.185Z,6.97
2019-02-24T11:36:52.159Z,6.97
2019-02-24T11:39:23.128Z,4.67
2019-02-24T11:41:54.062Z,7.50
2019-02-24T11:44:25.035Z,6.27
2019-02-24T11:46:56.203Z,5.57
2019-02-24T11:49:27.233Z,7.07
2019-02-24T11:52:03.837Z,8.77
2019-02-24T11:54:30.871Z,8.83
2019-02-24T11:57:03.238Z,7.13
2019-02-24T11:59:34.131Z,6.10
2019-02-24T12:02:05.185Z,5.30
2019-02-24T12:04:36.231Z,6.07
2019-02-24T12:07:07.224Z,5.43
2019-02-24T12:09:38.216Z,5.63
2019-02-24T12:12:09.260Z,8.53
2019-02-24T12:14:40.168Z,7.17
2019-02-24T12:17:11.069Z,5.07
2019-02-24T12:19:42.133Z,6.23
2019-02-24T12:22:13.151Z,6.57
2019-02-24T12:24:44.137Z,14.20
2019-02-24T12:27:15.081Z,6.00
2019-02-24T12:29:46.145Z,4.97
2019-02-24T12:32:17.078Z,4.37
2019-02-24T12:34:48.475Z,6.23
2019-02-24T12:37:19.598Z,4.50
2019-02-24T12:39:50.523Z,4.90
2019-02-24T12:42:21.465Z,4.40
2019-02-24T12:44:52.627Z,6.43
2019-02-24T12:47:23.568Z,9.83
2019-02-24T12:50:02.926Z,6.07
2019-02-24T12:52:27.239Z,8.63
2019-02-24T12:54:58.137Z,7.57
2019-02-24T12:57:29.022Z,6.90
2019-02-24T12:59:59.982Z,5.87
2019-02-24T13:02:30.884Z,7.97
2019-02-24T13:05:01.887Z,4.80
2019-02-24T13:07:32.769Z,4.33
2019-02-24T13:10:05.210Z,5.90
2019-02-24T13:12:36.083Z,6.10
2019-02-24T13:15:07.207Z,4.93
2019-02-24T13:17:38.309Z,5.33
2019-02-24T13:20:10.959Z,4.53
2019-02-24T13:22:42.156Z,5.10
2019-02-24T13:25:13.779Z,5.23
2019-02-24T13:27:44.768Z,6.00
2019-02-24T13:30:17.079Z,7.00
2019-02-24T13:32:48.105Z,7.20
2019-02-24T13:35:19.129Z,6.20
2019-02-24T13:37:50.276Z,5.23
2019-02-24T13:40:21.231Z,5.70
2019-02-24T13:42:52.201Z,4.53
2019-02-24T13:45:23.538Z,5.60
2019-02-24T13:47:54.539Z,4.83
2019-02-24T13:50:25.422Z,7.13
2019-02-24T13:52:56.553Z,6.83
2019-02-24T13:55:27.504Z,4.20
2019-02-24T13:57:58.442Z,6.27
2019-02-24T14:00:29.655Z,5.10
2019-02-24T14:03:00.610Z,7.47
2019-02-24T14:05:31.626Z,4.77
2019-02-24T14:08:02.784Z,4.40
2019-02-24T14:10:33.766Z,5.67
2019-02-24T14:13:04.787Z,4.30
2019-02-24T14:15:35.726Z,4.10
2019-02-24T14:18:06.742Z,4.83
2019-02-24T14:20:37.850Z,4.60
2019-02-24T14:23:08.683Z,4.77
2019-02-24T14:25:39.663Z,5.93
2019-02-24T14:28:10.765Z,5.10
2019-02-24T14:30:41.739Z,4.23
2019-02-24T14:33:12.663Z,5.50
2019-02-24T14:35:43.618Z,5.57
2019-02-24T14:38:14.674Z,6.23
2019-02-24T14:40:45.697Z,6.17
2019-02-24T14:43:16.702Z,4.67
2019-02-24T14:45:49.841Z,5.07
2019-02-24T14:48:20.222Z,6.90
2019-02-24T14:50:51.160Z,7.10
2019-02-24T14:53:22.120Z,4.77
2019-02-24T14:55:53.110Z,6.03
2019-02-24T14:58:24.186Z,5.13
2019-02-24T15:00:55.218Z,5.97
2019-02-24T15:03:26.282Z,4.47
2019-02-24T15:05:57.320Z,5.83
2019-02-24T15:08:28.338Z,6.33
2019-02-24T15:10:59.322Z,7.67
2019-02-24T15:13:30.280Z,5.83
2019-02-24T15:16:01.195Z,5.23
2019-02-24T15:18:32.170Z,6.27
2019-02-24T15:21:03.292Z,6.17
2019-02-24T15:23:34.278Z,7.87
2019-02-24T15:26:05.326Z,5.33
2019-02-24T15:28:36.617Z,6.63
2019-02-24T15:31:07.558Z,6.03
2019-02-24T15:33:38.544Z,5.37
2019-02-24T15:36:09.497Z,5.23
2019-02-24T15:38:40.550Z,6.50
2019-02-24T15:41:11.594Z,7.87
2019-02-24T15:43:42.521Z,7.47
2019-02-24T15:46:13.522Z,6.13
2019-02-24T15:48:44.457Z,6.67
2019-02-24T15:51:15.400Z,7.60
2019-02-24T15:53:46.290Z,6.83
2019-02-24T15:56:17.337Z,7.80
2019-02-24T15:58:48.324Z,9.33
2019-02-24T16:01:19.418Z,4.90
2019-02-24T16:03:50.422Z,9.33
2019-02-24T16:06:21.493Z,9.57
2019-02-24T16:08:52.617Z,9.67
2019-02-24T16:11:23.500Z,10.17
2019-02-24T16:13:54.391Z,6.93
2019-02-24T16:16:25.361Z,9.33
2019-02-24T16:18:56.513Z,9.10
2019-02-24T16:21:27.592Z,9.00
2019-02-24T16:23:58.577Z,9.47
2019-02-24T16:26:29.594Z,7.37
2019-02-24T16:29:00.545Z,6.83
2019-02-24T16:31:31.449Z,8.60
2019-02-24T16:34:02.391Z,7.70
2019-02-24T16:36:33.355Z,15.40
2019-02-24T16:39:04.825Z,8.30
2019-02-24T16:41:35.717Z,9.03
2019-02-24T16:44:06.789Z,11.13
2019-02-24T16:46:37.944Z,9.80
2019-02-24T16:49:08.837Z,9.47
2019-02-24T16:51:39.939Z,9.53
2019-02-24T16:54:11.087Z,11.57
2019-02-24T16:56:42.135Z,7.10
2019-02-24T16:59:13.137Z,6.50
2019-02-24T17:01:44.074Z,12.43
2019-02-24T17:04:15.040Z,7.07
2019-02-24T17:06:46.313Z,9.50
2019-02-24T17:09:18.763Z,9.20
2019-02-24T17:11:49.732Z,7.50
2019-02-24T17:14:20.688Z,10.23
2019-02-24T17:16:51.653Z,6.60
2019-02-24T17:19:22.629Z,11.93
2019-02-24T17:21:53.829Z,27.63
2019-02-24T17:24:24.731Z,9.37
2019-02-24T17:26:55.767Z,23.33
2019-02-24T17:29:26.699Z,9.40
2019-02-24T17:31:57.585Z,8.73
2019-02-24T17:34:28.550Z,10.67
2019-02-24T17:36:59.536Z,14.60
2019-02-24T17:39:30.483Z,15.13
2019-02-24T17:42:01.695Z,16.83
2019-02-24T17:44:32.743Z,13.23
2019-02-24T17:47:03.937Z,14.83
2019-02-24T17:49:34.900Z,11.40
2019-02-24T17:52:05.807Z,14.73
2019-02-24T17:54:36.793Z,12.80
2019-02-24T17:57:07.741Z,13.37
2019-02-24T17:59:45.011Z,12.13
2019-02-24T18:02:15.899Z,8.70
2019-02-24T18:04:47.326Z,13.53
2019-02-24T18:07:18.407Z,12.57
2019-02-24T18:09:52.723Z,16.50
2019-02-24T18:12:23.624Z,15.83
2019-02-24T18:14:54.600Z,15.10
2019-02-24T18:17:25.471Z,14.60
2019-02-24T18:19:56.466Z,18.87
2019-02-24T18:22:27.764Z,17.33
2019-02-24T18:25:03.085Z,18.63
2019-02-24T18:27:31.325Z,20.17
2019-02-24T18:30:02.308Z,20.57
2019-02-24T18:38:12.715Z,20.47
2019-02-24T18:40:43.839Z,22.30
2019-02-24T18:43:14.789Z,21.53
2019-02-24T18:45:45.804Z,26.20
2019-02-24T18:48:16.750Z,28.30
2019-02-24T18:50:47.624Z,28.07
2019-02-24T18:53:18.482Z,23.17
2019-02-24T18:55:49.388Z,25.87
2019-02-24T18:58:21.149Z,21.53
2019-02-24T19:00:52.211Z,21.57
2019-02-24T19:03:23.094Z,20.03
2019-02-24T19:05:53.972Z,22.67
2019-02-24T19:08:24.891Z,26.47
2019-02-24T19:10:55.758Z,22.13
2019-02-24T19:13:26.619Z,24.27
2019-02-24T19:15:57.727Z,30.77
2019-02-24T19:18:28.826Z,22.50
2019-02-24T19:20:59.698Z,17.03
2019-02-24T19:23:30.654Z,20.53
2019-02-24T19:26:01.626Z,20.90
2019-02-24T19:28:32.621Z,23.87
2019-02-24T19:31:03.506Z,18.57
2019-02-24T19:33:34.402Z,18.00
2019-02-24T19:36:05.328Z,13.93
2019-02-24T19:38:36.360Z,15.23
2019-02-24T19:41:07.314Z,18.00
2019-02-24T19:43:38.292Z,18.83
2019-02-24T19:46:09.135Z,20.37
2019-02-24T19:48:42.256Z,22.47
2019-02-24T19:51:12.668Z,15.57
2019-02-24T19:53:43.534Z,16.87
2019-02-24T19:56:14.392Z,18.03
2019-02-24T19:58:47.490Z,20.07
2019-02-24T20:01:17.837Z,18.97
2019-02-24T20:03:50.415Z,17.00
2019-02-24T20:06:21.332Z,18.53
2019-02-24T20:08:52.274Z,16.87
2019-02-24T20:11:23.200Z,20.20
2019-02-24T20:13:54.216Z,16.40
2019-02-24T20:16:25.153Z,18.27
2019-02-24T20:18:56.016Z,14.17
2019-02-24T20:21:26.905Z,17.50
2019-02-24T20:23:57.772Z,20.93
2019-02-24T20:26:28.691Z,17.27
2019-02-24T20:28:59.490Z,13.57
2019-02-24T20:31:30.355Z,12.77
2019-02-24T20:34:02.190Z,16.80
2019-02-24T20:36:33.036Z,15.23
2019-02-24T20:39:04.581Z,15.10
2019-02-24T20:41:35.418Z,16.80
2019-02-24T20:44:06.281Z,18.70
2019-02-24T20:46:37.135Z,17.20
2019-02-24T20:49:07.998Z,20.90
2019-02-24T20:51:38.894Z,19.73
2019-02-24T20:54:09.929Z,21.17
2019-02-24T20:56:41.113Z,16.40
2019-02-24T20:59:12.162Z,36.80
2019-02-24T21:01:43.129Z,21.50
2019-02-24T21:04:13.979Z,16.70
2019-02-24T21:06:44.955Z,22.47
2019-02-24T21:09:15.823Z,15.37
2019-02-24T21:11:48.389Z,13.03
2019-02-24T21:14:19.797Z,15.53
2019-02-24T21:16:50.793Z,11.80
2019-02-24T21:19:21.697Z,11.37
2019-02-24T21:21:52.559Z,14.80
2019-02-24T21:24:23.499Z,11.57
2019-02-24T21:26:54.339Z,10.67
2019-02-24T21:29:25.226Z,12.80
2019-02-24T21:31:56.040Z,11.53
2019-02-24T21:34:26.969Z,10.37
2019-02-24T21:36:57.799Z,10.43
2019-02-24T21:39:28.643Z,11.67
2019-02-24T21:41:59.492Z,13.77
2019-02-24T21:44:30.394Z,13.00
2019-02-24T21:47:01.226Z,13.07
2019-02-24T21:49:32.242Z,10.70
2019-02-24T21:52:03.109Z,10.57
2019-02-24T21:54:34.658Z,10.20
2019-02-24T21:57:05.521Z,10.27
2019-02-24T21:59:37.158Z,9.67
2019-02-24T22:02:08.247Z,11.80
2019-02-24T22:04:39.151Z,11.33
2019-02-24T22:07:09.998Z,13.30
2019-02-24T22:09:40.864Z,12.20
2019-02-24T22:12:11.726Z,12.37
2019-02-24T22:14:42.804Z,10.87
2019-02-24T22:17:13.738Z,13.40
2019-02-24T22:19:44.599Z,12.30
2019-02-24T22:22:15.449Z,14.53
2019-02-24T22:24:46.311Z,13.17
2019-02-24T22:27:17.257Z,12.33
2019-02-24T22:29:48.229Z,12.37
2019-02-24T22:32:19.074Z,11.90
2019-02-24T22:34:49.941Z,11.27
2019-02-24T22:37:20.824Z,9.40
2019-02-24T22:39:51.691Z,13.13
2019-02-24T22:42:22.575Z,10.17
2019-02-24T22:44:53.422Z,14.97
2019-02-24T22:47:24.290Z,12.87
2019-02-24T22:49:55.143Z,12.07
2019-02-24T22:52:26.028Z,12.93
2019-02-24T22:54:56.898Z,13.27
2019-02-24T22:57:27.756Z,13.47
2019-02-24T22:59:58.634Z,10.37
2019-02-24T23:02:29.642Z,13.93
2019-02-24T23:05:00.491Z,14.87
2019-02-24T23:07:31.376Z,13.37
2019-02-24T23:10:05.790Z,12.17
2019-02-24T23:12:36.660Z,10.33
2019-02-24T23:15:07.574Z,13.63
2019-02-24T23:17:39.488Z,11.03
2019-02-24T23:20:10.419Z,10.47
2019-02-24T23:22:41.306Z,11.10
2019-02-24T23:25:12.170Z,12.03
2019-02-24T23:27:43.056Z,12.23
2019-02-24T23:30:14.003Z,12.13
2019-02-24T23:32:44.858Z,9.97
2019-02-24T23:35:15.708Z,9.97
2019-02-24T23:37:46.557Z,9.97
2019-02-24T23:40:17.422Z,12.67
2019-02-24T23:42:48.282Z,10.73
2019-02-24T23:45:19.148Z,12.70
2019-02-24T23:47:50.015Z,11.20
2019-02-24T23:50:20.941Z,12.17
2019-02-24T23:52:51.879Z,11.97
2019-02-24T23:55:22.756Z,12.40
2019-02-24T23:57:53.609Z,12.37
